Time;durP1;ratioP1;P1;durP2;ratioP2;P2;SDS_P1;SDS_P2;PMS_P1;PMS_P2;Temp;Humidity;BMP_temperature;BMP_pressure;BME280_temperature;BME280_humidity;BME280_pressure;Samples;Min_cycle;Max_cycle;Signal;HPM_P1;HPM_P2
2022/02/26 00:00:44;;;;;;;9.85;2.65;;;;;;;0.92;100.00;100350.22;5148298;27;20131;-84
2022/02/26 00:03:11;;;;;;;12.32;2.83;;;;;;;1.05;100.00;100372.63;5149493;27;20057;-84
2022/02/26 00:05:51;;;;;;;12.02;3.20;;;;;;;0.98;100.00;100361.44;5149122;27;20042;-85
2022/02/26 00:08:18;;;;;;;9.43;2.85;;;;;;;1.13;100.00;100378.38;5152073;27;20047;-85
2022/02/26 00:10:45;;;;;;;3.42;2.40;;;;;;;1.18;100.00;100354.84;5153179;27;20119;-84
2022/02/26 00:13:13;;;;;;;7.45;2.58;;;;;;;1.24;100.00;100378.56;5153764;27;20154;-84
2022/02/26 00:15:41;;;;;;;9.25;3.20;;;;;;;1.14;100.00;100342.59;5152905;27;20047;-85
2022/02/26 00:18:07;;;;;;;12.68;3.10;;;;;;;1.22;100.00;100352.84;5154215;27;20058;-84
2022/02/26 00:20:34;;;;;;;4.72;2.50;;;;;;;1.28;100.00;100363.19;5151787;27;20073;-85
2022/02/26 00:23:02;;;;;;;7.45;2.83;;;;;;;1.20;100.00;100346.72;5153712;27;20043;-84
2022/02/26 00:25:29;;;;;;;3.17;2.22;;;;;;;1.37;100.00;100372.44;5150240;27;20039;-85
2022/02/26 00:27:57;;;;;;;6.85;3.00;;;;;;;1.36;100.00;100373.41;5152477;27;20054;-84
2022/02/26 00:30:25;;;;;;;8.30;2.70;;;;;;;1.38;100.00;100391.09;5155726;27;20058;-85
2022/02/26 00:32:52;;;;;;;6.90;2.97;;;;;;;1.33;100.00;100387.84;5147580;27;20092;-85
2022/02/26 00:35:19;;;;;;;5.60;3.15;;;;;;;1.31;100.00;100378.19;5153381;27;20404;-85
2022/02/26 00:37:45;;;;;;;6.10;2.80;;;;;;;1.33;100.00;100378.97;5154002;27;20512;-85
2022/02/26 00:40:14;;;;;;;4.68;3.05;;;;;;;1.36;100.00;100405.56;5148561;27;20134;-84
2022/02/26 00:42:44;;;;;;;8.63;3.20;;;;;;;1.37;100.00;100410.84;5153147;27;20046;-85
2022/02/26 00:45:11;;;;;;;7.97;2.72;;;;;;;1.42;100.00;100403.34;5151317;27;20046;-85
2022/02/26 00:47:40;;;;;;;8.60;2.80;;;;;;;1.46;100.00;100405.84;5155431;27;20542;-84
2022/02/26 00:50:06;;;;;;;4.43;2.58;;;;;;;1.53;100.00;100409.88;5146559;27;20185;-85
2022/02/26 00:52:34;;;;;;;5.70;2.65;;;;;;;1.30;100.00;100398.78;5159825;27;20142;-85
2022/02/26 00:55:02;;;;;;;8.63;2.90;;;;;;;1.52;100.00;100413.50;5151334;27;20142;-85
2022/02/26 00:57:30;;;;;;;10.15;2.85;;;;;;;1.67;100.00;100420.59;5153328;27;20141;-85
2022/02/26 00:59:57;;;;;;;7.93;3.00;;;;;;;1.59;100.00;100428.25;5152592;27;20035;-85
2022/02/26 01:02:26;;;;;;;9.60;3.38;;;;;;;1.56;100.00;100415.88;5148466;27;20038;-84
2022/02/26 01:04:53;;;;;;;8.40;3.25;;;;;;;1.52;100.00;100408.13;5151752;27;20067;-84
2022/02/26 01:07:23;;;;;;;13.82;3.17;;;;;;;1.70;100.00;100431.13;5146560;27;20046;-85
2022/02/26 01:09:50;;;;;;;5.90;2.97;;;;;;;1.65;100.00;100441.25;5151432;27;20039;-84
2022/02/26 01:12:17;;;;;;;7.95;2.70;;;;;;;1.51;100.00;100415.31;5154088;27;20099;-84
2022/02/26 01:14:46;;;;;;;8.57;3.50;;;;;;;1.61;100.00;100425.47;5158802;27;20043;-84
2022/02/26 01:17:16;;;;;;;10.38;4.70;;;;;;;1.64;100.00;100433.31;5151100;27;20046;-85
2022/02/26 01:19:45;;;;;;;9.63;2.95;;;;;;;1.78;100.00;100446.72;5147164;27;20046;-85
2022/02/26 01:22:12;;;;;;;10.02;3.53;;;;;;;1.64;100.00;100446.72;5153043;27;20061;-85
2022/02/26 01:24:38;;;;;;;9.80;3.20;;;;;;;1.61;100.00;100433.50;5154375;27;20085;-85
2022/02/26 01:27:05;;;;;;;11.27;3.80;;;;;;;1.58;100.00;100446.16;5154925;27;20035;-85
2022/02/26 01:29:37;;;;;;;9.10;3.47;;;;;;;1.47;100.00;100434.38;5146052;27;20043;-85
2022/02/26 01:32:07;;;;;;;12.70;3.53;;;;;;;1.73;100.00;100449.69;5152207;27;20494;-85
2022/02/26 01:34:34;;;;;;;9.10;2.97;;;;;;;1.58;100.00;100434.53;5148297;27;20379;-85
2022/02/26 01:37:01;;;;;;;6.55;3.10;;;;;;;1.53;100.00;100444.72;5147075;27;20078;-85
2022/02/26 01:39:27;;;;;;;10.25;3.95;;;;;;;1.56;100.00;100445.38;5158725;27;20047;-85
2022/02/26 01:41:57;;;;;;;6.40;2.90;;;;;;;1.49;100.00;100430.66;5147103;27;20197;-85
2022/02/26 01:44:28;;;;;;;8.40;3.17;;;;;;;1.49;100.00;100452.09;5152465;27;20103;-85
2022/02/26 01:46:58;;;;;;;3.75;2.60;;;;;;;1.49;100.00;100465.50;5151116;27;20394;-85
2022/02/26 01:49:29;;;;;;;8.30;2.60;;;;;;;1.38;100.00;100433.97;5151059;27;20435;-85
2022/02/26 01:52:00;;;;;;;9.13;3.55;;;;;;;1.41;100.00;100449.00;5150727;27;20061;-85
2022/02/26 01:54:27;;;;;;;8.52;2.97;;;;;;;1.50;100.00;100464.50;5152330;27;20061;-85
2022/02/26 01:56:55;;;;;;;6.90;2.97;;;;;;;1.35;100.00;100438.66;5150189;27;20130;-85
2022/02/26 01:59:22;;;;;;;12.23;3.28;;;;;;;1.33;100.00;100438.78;5147882;27;20039;-85
2022/02/26 02:01:49;;;;;;;7.88;3.28;;;;;;;1.23;100.00;100434.91;5151753;27;20051;-85
2022/02/26 02:04:17;;;;;;;10.32;3.55;;;;;;;1.31;100.00;100427.28;5147691;27;20051;-85
2022/02/26 02:06:45;;;;;;;15.85;4.13;;;;;;;1.26;100.00;100439.25;5139228;27;20462;-84
2022/02/26 02:09:13;;;;;;;7.65;3.15;;;;;;;1.24;100.00;100437.50;5143517;27;20055;-85
2022/02/26 02:11:43;;;;;;;11.60;3.47;;;;;;;1.06;100.00;100427.94;5151298;27;20060;-85
2022/02/26 02:14:12;;;;;;;9.13;3.33;;;;;;;1.10;100.00;100450.00;5147517;27;20489;-85
2022/02/26 02:16:38;;;;;;;12.52;3.58;;;;;;;1.10;100.00;100452.69;5151233;27;20054;-85
2022/02/26 02:19:07;;;;;;;9.73;4.22;;;;;;;0.94;100.00;100445.59;5148736;27;20146;-84
2022/02/26 02:21:37;;;;;;;7.80;2.92;;;;;;;1.03;100.00;100458.41;5151392;27;20122;-85
2022/02/26 02:24:06;;;;;;;;;;;;;;;0.95;100.00;100471.44;5150298;27;20070;-85
2022/02/26 02:26:34;;;;;;;11.05;3.33;;;;;;;0.91;100.00;100474.38;5149980;27;20255;-85
2022/02/26 02:29:01;;;;;;;10.50;4.03;;;;;;;0.98;100.00;100465.88;5151283;27;20154;-85
2022/02/26 02:31:30;;;;;;;17.23;4.18;;;;;;;1.06;100.00;100468.09;5150235;27;20153;-85
2022/02/26 02:33:58;;;;;;;8.67;3.63;;;;;;;0.97;100.00;100458.78;5149596;27;20061;-85
2022/02/26 02:36:24;;;;;;;8.52;3.38;;;;;;;1.08;100.00;100463.50;5150897;27;20092;-84
2022/02/26 02:38:51;;;;;;;11.70;4.25;;;;;;;0.99;100.00;100451.50;5150560;27;20409;-85
2022/02/26 02:41:20;;;;;;;6.10;4.00;;;;;;;0.90;100.00;100438.69;5159208;27;20417;-84
2022/02/26 02:43:47;;;;;;;10.32;4.32;;;;;;;0.91;100.00;100448.44;5149005;27;20112;-85
2022/02/26 02:46:15;;;;;;;12.05;3.45;;;;;;;0.91;100.00;100450.28;5145292;27;20051;-84
2022/02/26 02:48:42;;;;;;;8.18;3.85;;;;;;;0.92;100.00;100444.84;5147303;27;20046;-85
2022/02/26 02:51:12;;;;;;;5.80;3.28;;;;;;;1.04;100.00;100478.91;5147367;27;20121;-85
2022/02/26 02:53:39;;;;;;;;;;;;;;;0.98;100.00;100476.59;5145251;27;20051;-85
2022/02/26 02:56:06;;;;;;;14.13;3.58;;;;;;;0.93;100.00;100472.47;5147217;27;19980;-85
2022/02/26 02:58:34;;;;;;;10.25;3.75;;;;;;;0.96;100.00;100480.31;5149449;27;20375;-85
2022/02/26 03:01:01;;;;;;;15.38;4.80;;;;;;;1.00;100.00;100471.16;5150619;27;20523;-85
2022/02/26 03:03:28;;;;;;;8.90;3.85;;;;;;;0.99;100.00;100451.50;5147053;27;20042;-85
2022/02/26 03:05:58;;;;;;;15.82;4.55;;;;;;;1.00;100.00;100477.34;5153777;27;20047;-85
2022/02/26 03:08:25;;;;;;;7.80;3.53;;;;;;;0.92;100.00;100490.34;5148766;27;20474;-85
2022/02/26 03:10:56;;;;;;;8.95;3.90;;;;;;;0.85;100.00;100480.94;5154488;27;20129;-85
2022/02/26 03:13:24;;;;;;;11.52;4.10;;;;;;;0.85;100.00;100473.78;5152210;27;20173;-85
2022/02/26 03:15:53;;;;;;;8.88;3.63;;;;;;;0.89;100.00;100487.84;5151304;27;20047;-85
2022/02/26 03:18:20;;;;;;;7.53;4.55;;;;;;;0.88;100.00;100486.97;5145135;27;20070;-85
2022/02/26 03:20:47;;;;;;;12.88;3.55;;;;;;;0.89;100.00;100493.22;5150003;27;20440;-84
2022/02/26 03:23:18;;;;;;;8.07;3.47;;;;;;;0.85;100.00;100486.31;5145197;27;20077;-85
2022/02/26 03:25:45;;;;;;;12.15;3.70;;;;;;;0.81;100.00;100485.63;5151785;27;20482;-85
2022/02/26 03:28:13;;;;;;;8.32;4.47;;;;;;;0.83;100.00;100489.06;5152200;27;20058;-85
2022/02/26 03:30:40;;;;;;;8.80;3.97;;;;;;;0.94;100.00;100501.81;5150832;27;20401;-85
2022/02/26 03:33:14;;;;;;;9.65;4.35;;;;;;;0.85;100.00;100494.34;5151485;27;20051;-85
2022/02/26 03:35:40;;;;;;;7.97;3.35;;;;;;;0.79;100.00;100492.88;5152337;27;20107;-85
2022/02/26 03:38:09;;;;;;;12.32;4.60;;;;;;;0.84;100.00;100511.34;5152477;27;20055;-85
2022/02/26 03:40:39;;;;;;;13.13;3.80;;;;;;;0.79;100.00;100498.22;5146731;27;20062;-85
2022/02/26 03:43:09;;;;;;;6.50;3.35;;;;;;;0.78;100.00;100493.81;5151151;27;20049;-85
2022/02/26 03:45:38;;;;;;;9.15;4.20;;;;;;;0.75;100.00;100496.66;5152152;27;20051;-85
2022/02/26 03:48:05;;;;;;;10.57;4.13;;;;;;;0.72;100.00;100491.50;5150882;27;20038;-85
2022/02/26 03:50:34;;;;;;;11.07;3.85;;;;;;;0.78;100.00;100514.38;5151989;27;20054;-85
2022/02/26 03:53:01;;;;;;;10.75;4.22;;;;;;;0.78;100.00;100511.69;5151921;27;20062;-85
2022/02/26 03:55:30;;;;;;;10.45;4.05;;;;;;;0.75;100.00;100504.69;5150518;27;20089;-85
2022/02/26 03:57:57;;;;;;;8.15;4.00;;;;;;;0.77;100.00;100523.34;5140732;27;20043;-85
2022/02/26 04:00:26;;;;;;;10.55;4.40;;;;;;;0.77;100.00;100518.00;5152149;27;20050;-85
2022/02/26 04:02:55;;;;;;;9.23;4.38;;;;;;;0.75;100.00;100509.22;5150825;27;20031;-85
2022/02/26 04:05:22;;;;;;;17.13;5.28;;;;;;;0.82;100.00;100513.25;5151348;27;20050;-85
2022/02/26 04:07:50;;;;;;;8.45;4.25;;;;;;;0.86;100.00;100515.66;5151440;27;20054;-85
2022/02/26 04:10:17;;;;;;;16.08;4.25;;;;;;;0.79;100.00;100518.78;5143891;27;20053;-85
2022/02/26 04:12:46;;;;;;;13.23;4.20;;;;;;;0.82;100.00;100521.28;5151310;27;20497;-85
2022/02/26 04:15:13;;;;;;;16.83;5.03;;;;;;;0.78;100.00;100520.59;5146433;27;20047;-85
2022/02/26 04:17:40;;;;;;;9.35;4.85;;;;;;;0.85;100.00;100555.91;5151430;27;20046;-85
2022/02/26 04:20:09;;;;;;;11.10;5.80;;;;;;;0.96;100.00;100553.47;5151683;27;20053;-85
2022/02/26 04:22:36;;;;;;;13.85;5.20;;;;;;;0.90;100.00;100545.78;5150120;27;20046;-85
2022/02/26 04:25:05;;;;;;;7.22;4.53;;;;;;;1.00;100.00;100556.84;5151196;27;20077;-84
2022/02/26 04:27:32;;;;;;;20.30;4.80;;;;;;;0.93;100.00;100550.97;5151846;27;20067;-85
2022/02/26 04:29:59;;;;;;;5.20;4.05;;;;;;;0.93;100.00;100550.13;5148871;27;20102;-84
2022/02/26 04:32:26;;;;;;;7.88;4.78;;;;;;;0.84;100.00;100544.34;5149605;27;20778;-85
2022/02/26 04:34:53;;;;;;;13.55;4.97;;;;;;;0.77;100.00;100532.28;5151582;27;20055;-85
2022/02/26 04:37:20;;;;;;;11.15;5.72;;;;;;;0.78;100.00;100533.13;5151229;27;20401;-85
2022/02/26 04:39:47;;;;;;;15.25;4.45;;;;;;;0.88;100.00;100547.69;5151904;27;20038;-84
2022/02/26 04:42:15;;;;;;;13.88;5.55;;;;;;;0.85;100.00;100547.88;5151634;27;20047;-84
2022/02/26 04:44:45;;;;;;;14.90;4.80;;;;;;;0.80;100.00;100553.50;5150561;27;20069;-85
2022/02/26 04:47:12;;;;;;;11.70;5.03;;;;;;;0.75;100.00;100547.53;5148163;27;20493;-85
2022/02/26 04:49:41;;;;;;;13.20;5.00;;;;;;;0.73;100.00;100541.41;5150127;27;20095;-85
2022/02/26 04:52:09;;;;;;;13.20;4.97;;;;;;;0.76;100.00;100561.81;5150621;27;20053;-85
2022/02/26 04:54:37;;;;;;;12.98;5.10;;;;;;;0.78;100.00;100562.56;5153606;27;20525;-84
2022/02/26 04:57:07;;;;;;;10.18;4.63;;;;;;;0.71;100.00;100554.03;5155255;27;20057;-85
2022/02/26 04:59:36;;;;;;;13.65;5.13;;;;;;;0.56;100.00;100539.72;5154563;27;20411;-85
2022/02/26 05:02:03;;;;;;;9.63;5.28;;;;;;;0.69;100.00;100562.16;5151601;27;20546;-85
2022/02/26 05:04:30;;;;;;;15.93;6.47;;;;;;;0.72;100.00;100561.09;5149673;27;20096;-85
2022/02/26 05:06:57;;;;;;;9.45;5.05;;;;;;;0.70;100.00;100558.50;5154566;27;20039;-84
2022/02/26 05:09:23;;;;;;;10.48;5.53;;;;;;;0.72;100.00;100569.13;5155312;27;20443;-85
2022/02/26 05:11:50;;;;;;;15.63;6.18;;;;;;;0.67;100.00;100572.06;5154533;27;20077;-85
2022/02/26 05:14:17;;;;;;;11.38;5.40;;;;;;;0.66;100.00;100565.00;5153461;27;20074;-85
2022/02/26 05:16:46;;;;;;;8.05;4.82;;;;;;;0.56;100.00;100566.47;5154760;27;20054;-85
2022/02/26 05:19:15;;;;;;;13.45;5.47;;;;;;;0.62;100.00;100560.78;5152944;27;20099;-85
2022/02/26 05:21:42;;;;;;;13.48;4.72;;;;;;;0.56;100.00;100563.81;5154087;27;20039;-85
2022/02/26 05:24:09;;;;;;;10.52;5.13;;;;;;;0.62;100.00;100565.28;5153544;27;20138;-84
2022/02/26 05:26:36;;;;;;;15.20;5.30;;;;;;;0.51;100.00;100569.41;5154674;27;20039;-85
2022/02/26 05:29:05;;;;;;;10.60;5.13;;;;;;;0.56;100.00;100577.19;5154181;27;20082;-85
2022/02/26 05:31:32;;;;;;;12.55;5.15;;;;;;;0.45;100.00;100564.41;5154260;27;20058;-85
2022/02/26 05:34:00;;;;;;;12.25;4.68;;;;;;;0.42;100.00;100569.94;5152252;27;20550;-85
2022/02/26 05:36:29;;;;;;;14.52;5.28;;;;;;;0.47;100.00;100589.25;5152175;27;20078;-85
2022/02/26 05:38:56;;;;;;;11.95;5.15;;;;;;;0.31;100.00;100578.53;5146869;27;20150;-85
2022/02/26 05:41:23;;;;;;;14.05;5.63;;;;;;;0.36;100.00;100583.63;5154454;27;20050;-85
2022/02/26 05:43:50;;;;;;;15.10;5.63;;;;;;;0.42;100.00;100609.19;5153467;27;20106;-84
2022/02/26 05:46:19;;;;;;;11.50;5.72;;;;;;;0.31;100.00;100604.44;5153928;27;20134;-85
2022/02/26 05:48:46;;;;;;;10.13;4.95;;;;;;;0.20;100.00;100605.00;5162726;27;20058;-84
2022/02/26 05:51:15;;;;;;;9.68;5.55;;;;;;;0.15;100.00;100597.25;5170423;27;20590;-85
2022/02/26 05:53:47;;;;;;;13.38;5.47;;;;;;;0.07;100.00;100598.59;5164080;27;20050;-84
2022/02/26 05:56:16;;;;;;;16.08;5.78;;;;;;;0.20;100.00;100602.34;5154581;27;20062;-85
2022/02/26 05:58:43;;;;;;;7.95;4.40;;;;;;;0.09;100.00;100613.63;5154809;27;20039;-85
2022/02/26 06:01:15;;;;;;;10.85;5.55;;;;;;;0.11;100.00;100632.25;5151978;27;20493;-84
2022/02/26 06:06:50;;;;;;;9.25;5.30;;;;;;;-0.12;100.00;100614.75;5157312;27;20047;-84
2022/02/26 06:09:23;;;;;;;9.95;5.75;;;;;;;0.02;100.00;100633.63;5161221;27;20042;-85
2022/02/26 06:11:50;;;;;;;14.30;5.72;;;;;;;-0.08;100.00;100627.88;5166032;27;20046;-84
2022/02/26 06:14:21;;;;;;;16.55;6.20;;;;;;;-0.12;100.00;100629.00;5171057;27;20066;-84
2022/02/26 06:16:52;;;;;;;9.98;5.40;;;;;;;-0.07;100.00;100634.09;5163990;27;20046;-85
2022/02/26 06:19:24;;;;;;;10.50;5.53;;;;;;;-0.20;100.00;100621.38;5154946;27;20042;-85
2022/02/26 06:21:53;;;;;;;12.50;5.57;;;;;;;-0.10;100.00;100639.63;5153693;27;20134;-85
2022/02/26 06:24:19;;;;;;;13.77;6.70;;;;;;;-0.18;100.00;100645.38;5152561;27;20050;-84
2022/02/26 06:26:47;;;;;;;15.45;5.93;;;;;;;-0.13;100.00;100643.31;5151526;27;20096;-84
2022/02/26 06:29:16;;;;;;;11.73;5.72;;;;;;;-0.12;100.00;100649.50;5152582;27;20142;-85
2022/02/26 06:31:44;;;;;;;17.00;6.53;;;;;;;-0.09;100.00;100646.66;5153949;27;20062;-85
2022/02/26 06:34:11;;;;;;;12.00;6.13;;;;;;;-0.13;100.00;100643.31;5152485;27;20058;-84
2022/02/26 06:36:39;;;;;;;12.95;6.10;;;;;;;-0.15;100.00;100650.56;5153561;27;20054;-85
2022/02/26 06:39:07;;;;;;;15.18;5.97;;;;;;;0.01;100.00;100674.66;5152760;27;20043;-84
2022/02/26 06:41:34;;;;;;;12.10;6.22;;;;;;;0.01;100.00;100680.00;5144950;27;20038;-84
2022/02/26 06:44:01;;;;;;;10.65;6.80;;;;;;;0.02;100.00;100667.53;5147762;27;20119;-84
2022/02/26 06:46:30;;;;;;;19.67;6.90;;;;;;;0.03;100.00;100674.56;5149339;27;20131;-84
2022/02/26 06:48:57;;;;;;;10.02;6.35;;;;;;;0.11;100.00;100661.69;5153409;27;20038;-84
2022/02/26 06:51:24;;;;;;;12.02;6.80;;;;;;;0.04;100.00;100653.09;5152972;27;20054;-84
2022/02/26 06:53:51;;;;;;;15.15;7.57;;;;;;;0.26;100.00;100695.63;5151645;27;20066;-84
2022/02/26 06:56:19;;;;;;;12.52;6.00;;;;;;;0.34;100.00;100685.38;5152752;27;20102;-84
2022/02/26 06:58:45;;;;;;;12.95;7.07;;;;;;;0.40;100.00;100684.19;5147441;27;20138;-84
2022/02/26 07:01:12;;;;;;;18.58;7.63;;;;;;;0.28;100.00;100679.50;5145995;27;20047;-84
2022/02/26 07:03:39;;;;;;;13.65;6.60;;;;;;;0.38;100.00;100677.19;5151787;27;20054;-84
2022/02/26 07:06:06;;;;;;;16.10;7.32;;;;;;;0.46;100.00;100689.19;5153027;27;20065;-84
2022/02/26 07:08:32;;;;;;;17.73;7.82;;;;;;;0.42;100.00;100676.06;5151020;27;20058;-83
2022/02/26 07:11:01;;;;;;;12.40;6.95;;;;;;;0.51;100.00;100676.47;5152557;27;20058;-84
2022/02/26 07:13:31;;;;;;;15.65;8.18;;;;;;;0.57;100.00;100677.91;5151603;27;20066;-84
2022/02/26 07:15:59;;;;;;;15.80;8.52;;;;;;;0.74;100.00;100698.41;5151905;27;20134;-84
2022/02/26 07:18:25;;;;;;;11.95;6.68;;;;;;;0.68;100.00;100682.69;5149560;27;20038;-85
2022/02/26 07:20:52;;;;;;;11.15;7.03;;;;;;;0.84;100.00;100701.44;5150103;27;20049;-84
2022/02/26 07:23:22;;;;;;;14.93;7.35;;;;;;;0.70;100.00;100688.81;5152384;27;20055;-84
2022/02/26 07:25:51;;;;;;;21.00;6.57;;;;;;;0.83;100.00;100699.72;5149518;27;20070;-83
2022/02/26 07:28:18;;;;;;;12.73;6.63;;;;;;;0.66;100.00;100692.59;5152527;27;20045;-84
2022/02/26 07:30:48;;;;;;;20.55;7.30;;;;;;;0.77;100.00;100705.41;5152517;27;20042;-84
2022/02/26 07:33:15;;;;;;;28.00;9.35;;;;;;;0.67;100.00;100702.38;5152126;27;20387;-83
2022/02/26 07:35:43;;;;;;;18.13;8.40;;;;;;;0.87;100.00;100723.56;5145449;27;20131;-84
2022/02/26 07:38:10;;;;;;;16.77;6.22;;;;;;;0.87;100.00;100718.22;5152660;27;20050;-84
2022/02/26 07:40:41;;;;;;;23.27;8.35;;;;;;;0.97;100.00;100723.91;5151825;27;20065;-84
2022/02/26 07:43:10;;;;;;;17.30;7.93;;;;;;;1.07;100.00;100718.94;5152453;27;20111;-84
2022/02/26 07:45:43;;;;;;;13.57;7.82;;;;;;;1.11;100.00;100715.09;5152399;27;20078;-84
2022/02/26 07:48:14;;;;;;;20.95;8.50;;;;;;;1.19;100.00;100717.34;5150916;27;20476;-84
2022/02/26 07:50:41;;;;;;;11.15;6.47;;;;;;;1.17;100.00;100722.78;5152524;27;20136;-85
2022/02/26 07:53:08;;;;;;;15.73;7.47;;;;;;;1.48;100.00;100744.31;5140335;27;20047;-80
2022/02/26 07:55:41;;;;;;;14.27;6.53;;;;;;;1.59;100.00;100740.06;5148019;27;20054;-85
2022/02/26 07:58:10;;;;;;;23.20;7.80;;;;;;;1.72;100.00;100748.25;5150419;27;20085;-84
2022/02/26 08:00:40;;;;;;;16.17;7.68;;;;;;;1.59;100.00;100747.25;5152276;27;20074;-84
2022/02/26 08:03:06;;;;;;;19.15;8.25;;;;;;;1.66;100.00;100753.97;5150960;27;20038;-79
2022/02/26 08:05:35;;;;;;;16.25;7.75;;;;;;;1.70;100.00;100757.34;5151492;27;20043;-80
2022/02/26 08:08:01;;;;;;;20.80;9.35;;;;;;;1.79;100.00;100756.78;5147550;27;20066;-79
2022/02/26 08:10:28;;;;;;;13.95;7.97;;;;;;;1.83;100.00;100753.00;5150369;27;20057;-79
2022/02/26 08:12:57;;;;;;;24.55;10.70;;;;;;;1.92;100.00;100760.50;5148176;27;20047;-80
2022/02/26 08:15:32;;;;;;;26.35;10.13;;;;;;;1.97;100.00;100749.50;5150642;27;20038;-85
2022/02/26 08:17:59;;;;;;;15.00;7.70;;;;;;;1.94;100.00;100763.09;5153981;27;20492;-84
2022/02/26 08:20:27;;;;;;;21.15;8.65;;;;;;;1.74;100.00;100740.13;5153850;27;20049;-85
2022/02/26 08:23:13;;;;;;;20.35;8.30;;;;;;;1.80;100.00;100755.00;5154185;27;20034;-84
2022/02/26 08:25:41;;;;;;;22.05;8.88;;;;;;;1.93;100.00;100761.38;5152233;27;20054;-84
2022/02/26 08:28:10;;;;;;;19.60;7.95;;;;;;;2.16;100.00;100778.78;5154286;27;20046;-84
2022/02/26 08:30:39;;;;;;;22.65;8.15;;;;;;;2.09;100.00;100748.78;5155006;27;20047;-84
2022/02/26 08:33:10;;;;;;;19.55;8.75;;;;;;;2.40;100.00;100770.22;5155412;27;20051;-85
2022/02/26 08:35:39;;;;;;;20.90;8.60;;;;;;;2.39;100.00;100745.19;5156369;27;20050;-85
2022/02/26 08:38:07;;;;;;;23.40;8.27;;;;;;;2.61;100.00;100770.72;5155591;27;20073;-85
2022/02/26 08:40:35;;;;;;;15.23;7.57;;;;;;;2.49;100.00;100764.28;5152479;27;20047;-85
2022/02/26 08:43:02;;;;;;;20.10;8.18;;;;;;;2.35;100.00;100749.03;5156229;27;20141;-85
2022/02/26 08:45:32;;;;;;;16.23;8.30;;;;;;;2.28;100.00;100743.16;5150587;27;20043;-85
2022/02/26 08:48:00;;;;;;;;;;;;;;;2.50;100.00;100774.06;5154862;27;20047;-85
2022/02/26 08:50:27;;;;;;;24.55;8.55;;;;;;;2.38;100.00;100746.16;5156351;27;19941;-85
2022/02/26 08:53:03;;;;;;;14.50;8.13;;;;;;;2.51;100.00;100782.97;5155106;27;20176;-85
2022/02/26 08:55:37;;;;;;;22.15;7.45;;;;;;;2.59;100.00;100754.72;5155236;27;20101;-85
2022/02/26 08:58:10;;;;;;;16.40;7.25;;;;;;;2.58;100.00;100749.44;5156635;27;20043;-85
2022/02/26 09:00:44;;;;;;;16.88;8.38;;;;;;;2.73;100.00;100767.28;5156732;27;20069;-85
2022/02/26 09:03:10;;;;;;;24.25;8.30;;;;;;;2.78;100.00;100751.72;5154736;27;20054;-84
2022/02/26 09:05:40;;;;;;;19.30;8.68;;;;;;;2.90;100.00;100762.69;5155792;27;20046;-85
2022/02/26 09:08:12;;;;;;;21.10;7.90;;;;;;;2.90;100.00;100758.16;5155373;27;20558;-85
2022/02/26 09:10:43;;;;;;;21.50;7.38;;;;;;;3.02;100.00;100764.59;5155912;27;20042;-85
2022/02/26 09:13:10;;;;;;;19.08;8.00;;;;;;;3.09;100.00;100735.53;5151864;27;20047;-85
2022/02/26 09:15:37;;;;;;;15.40;8.18;;;;;;;3.22;100.00;100749.88;5153828;27;20061;-85
2022/02/26 09:18:05;;;;;;;20.60;8.50;;;;;;;3.15;100.00;100754.78;5154707;27;20126;-77
2022/02/26 09:20:34;;;;;;;21.70;8.25;;;;;;;3.21;100.00;100758.03;5156882;27;20091;-85
2022/02/26 09:23:07;;;;;;;17.80;8.27;;;;;;;3.29;100.00;100753.03;5157185;27;20478;-85
2022/02/26 09:25:38;;;;;;;15.45;8.20;;;;;;;3.42;100.00;100759.34;5148259;27;20110;-85
2022/02/26 09:28:13;;;;;;;16.90;7.97;;;;;;;3.50;100.00;100765.06;5154815;27;20054;-85
2022/02/26 09:31:04;;;;;;;17.95;8.38;;;;;;;3.60;100.00;100759.09;5154284;27;20050;-85
2022/02/26 09:33:33;;;;;;;16.45;7.57;;;;;;;3.56;100.00;100754.91;5156687;27;20067;-85
2022/02/26 09:36:02;;;;;;;17.38;7.05;;;;;;;3.67;100.00;100745.16;5156378;27;20446;-85
2022/02/26 09:38:33;;;;;;;19.83;6.65;;;;;;;3.91;100.00;100760.59;5151908;27;20038;-85
2022/02/26 09:41:05;;;;;;;13.10;6.00;;;;;;;3.95;100.00;100758.59;5154838;27;20092;-85
2022/02/26 09:43:34;;;;;;;16.77;5.95;;;;;;;4.12;100.00;100765.50;5146524;27;20045;-84
2022/02/26 09:46:03;;;;;;;11.70;4.40;;;;;;;4.21;99.02;100756.81;5154549;27;20058;-85
2022/02/26 09:48:30;;;;;;;18.90;7.68;;;;;;;4.18;99.90;100738.19;5152055;27;20383;-85
2022/02/26 09:51:00;;;;;;;18.92;7.03;;;;;;;4.11;98.33;100737.75;5154330;27;20458;-85
2022/02/26 09:53:27;;;;;;;;;;;;;;;4.09;92.79;100763.88;5154610;27;20042;-85
2022/02/26 09:56:01;;;;;;;18.52;5.30;;;;;;;4.19;92.18;100754.22;5155125;27;19958;-85
2022/02/26 09:58:28;;;;;;;15.38;5.43;;;;;;;4.47;92.81;100762.22;5155173;27;20042;-85
2022/02/26 10:00:57;;;;;;;19.35;4.18;;;;;;;4.45;85.29;100756.94;5154954;27;20095;-85
2022/02/26 10:03:33;;;;;;;13.82;4.10;;;;;;;4.33;82.28;100763.19;5152737;27;20042;-85
2022/02/26 10:06:05;;;;;;;6.70;3.15;;;;;;;4.24;74.78;100748.53;5154098;27;20042;-85
2022/02/26 10:08:38;;;;;;;9.85;2.60;;;;;;;4.24;73.43;100748.53;5154298;27;20566;-85
2022/02/26 10:11:10;;;;;;;9.27;2.50;;;;;;;4.19;70.53;100750.69;5153596;27;20085;-85
2022/02/26 10:13:44;;;;;;;12.90;3.28;;;;;;;4.25;76.41;100766.41;5153777;27;20046;-84
2022/02/26 10:16:12;;;;;;;7.18;2.63;;;;;;;4.20;74.90;100752.38;5154421;27;20056;-84
2022/02/26 10:18:50;;;;;;;19.52;6.13;;;;;;;4.25;75.89;100755.63;5154188;27;20046;-84
2022/02/26 10:21:29;;;;;;;9.65;3.88;;;;;;;3.97;74.70;100762.88;5150940;27;20465;-84
2022/02/26 10:23:55;;;;;;;9.27;2.60;;;;;;;3.99;72.41;100757.41;5150110;27;20102;-84
2022/02/26 10:26:32;;;;;;;10.05;2.50;;;;;;;4.23;73.47;100750.38;5153692;27;20053;-84
2022/02/26 10:29:08;;;;;;;4.55;2.42;;;;;;;4.28;71.91;100771.59;5153105;27;20042;-84
2022/02/26 10:31:48;;;;;;;11.32;2.97;;;;;;;4.37;73.47;100772.78;5153624;27;20047;-84
2022/02/26 10:34:30;;;;;;;5.53;2.17;;;;;;;4.43;74.97;100770.53;5151872;27;20103;-84
2022/02/26 10:37:03;;;;;;;12.30;2.70;;;;;;;4.47;70.64;100760.41;5152562;27;20046;-84
2022/02/26 10:39:32;;;;;;;11.77;2.58;;;;;;;4.52;71.29;100762.78;5149936;27;20123;-84
2022/02/26 10:41:59;;;;;;;10.55;2.97;;;;;;;4.45;74.16;100756.94;5152795;27;20057;-79
2022/02/26 10:44:25;;;;;;;8.48;2.85;;;;;;;4.67;73.45;100758.16;5151885;27;20054;-79
2022/02/26 10:46:53;;;;;;;10.52;2.30;;;;;;;4.65;72.61;100733.16;5151043;27;20500;-79
2022/02/26 10:49:20;;;;;;;13.32;2.70;;;;;;;4.65;69.65;100742.06;5152666;27;20042;-79
2022/02/26 10:51:49;;;;;;;10.07;2.38;;;;;;;4.59;68.63;100750.59;5151038;27;20494;-79
2022/02/26 10:54:22;;;;;;;10.43;2.90;;;;;;;4.36;71.11;100755.75;5151800;27;20047;-79
2022/02/26 10:56:48;;;;;;;6.00;1.42;;;;;;;3.98;69.87;100755.69;5143154;27;20108;-79
2022/02/26 10:59:34;;;;;;;6.15;1.85;;;;;;;4.07;67.58;100730.84;5153181;27;20046;-77
2022/02/26 11:02:05;;;;;;;17.95;2.80;;;;;;;4.18;68.83;100735.47;5152829;27;20057;-77
2022/02/26 11:04:32;;;;;;;13.52;2.80;;;;;;;4.06;71.16;100748.81;5154032;27;20078;-77
2022/02/26 11:07:00;;;;;;;7.95;2.22;;;;;;;4.00;71.70;100754.59;5154609;27;20050;-78
2022/02/26 11:09:27;;;;;;;16.95;2.47;;;;;;;3.96;70.90;100758.50;5152642;27;20043;-78
2022/02/26 11:11:56;;;;;;;14.05;1.98;;;;;;;4.01;69.83;100750.09;5153183;27;20497;-78
2022/02/26 11:14:24;;;;;;;14.20;2.03;;;;;;;4.39;68.92;100746.59;5148171;27;20066;-78
2022/02/26 11:16:55;;;;;;;5.45;1.90;;;;;;;4.07;66.68;100726.31;5151782;27;20051;-78
2022/02/26 11:19:25;;;;;;;6.30;1.92;;;;;;;4.29;66.86;100729.34;5152240;27;20129;-78
2022/02/26 11:21:53;;;;;;;14.10;2.17;;;;;;;4.40;66.88;100749.19;5151981;27;20043;-78
2022/02/26 11:24:20;;;;;;;6.57;1.77;;;;;;;4.27;66.14;100752.84;5145040;27;20401;-78
2022/02/26 11:26:47;;;;;;;8.98;2.30;;;;;;;4.28;67.07;100738.44;5149009;27;20066;-78
2022/02/26 11:29:16;;;;;;;9.73;2.65;;;;;;;4.41;67.93;100733.88;5138306;27;20406;-78
2022/02/26 11:31:46;;;;;;;7.60;2.00;;;;;;;4.68;64.87;100741.00;5149792;27;20057;-78